createdAt,value
2023-09-13T00:01:16.129Z,7.27
2023-09-13T00:04:04.494Z,7.60
2023-09-13T00:06:52.383Z,6.93
2023-09-13T00:09:42.587Z,6.87
2023-09-13T00:12:31.411Z,6.40
2023-09-13T00:15:19.284Z,6.60
2023-09-13T00:18:07.101Z,7.33
2023-09-13T00:20:55.089Z,7.33
2023-09-13T00:23:43.213Z,6.43
2023-09-13T00:26:32.596Z,7.10
2023-09-13T00:29:20.896Z,7.90
2023-09-13T00:32:09.398Z,8.37
2023-09-13T00:34:57.660Z,8.30
2023-09-13T00:37:46.302Z,8.87
2023-09-13T00:40:34.929Z,8.10
2023-09-13T00:43:24.240Z,8.50
2023-09-13T00:46:12.407Z,8.13
2023-09-13T00:49:00.972Z,7.83
2023-09-13T00:51:49.683Z,8.47
2023-09-13T00:54:37.606Z,7.20
2023-09-13T00:57:25.426Z,7.90
2023-09-13T01:00:15.837Z,8.83
2023-09-13T01:03:03.864Z,8.60
2023-09-13T01:05:53.666Z,8.73
2023-09-13T01:08:42.794Z,9.33
2023-09-13T01:11:31.887Z,9.53
2023-09-13T01:14:20.343Z,7.60
2023-09-13T01:17:13.743Z,6.90
2023-09-13T01:20:04.578Z,7.10
2023-09-13T01:23:07.583Z,6.50
2023-09-13T01:26:00.651Z,5.57
2023-09-13T01:28:51.646Z,4.80
2023-09-13T01:31:40.077Z,4.90
2023-09-13T01:34:28.756Z,4.80
2023-09-13T01:37:18.331Z,4.27
2023-09-13T01:40:07.931Z,4.73
2023-09-13T01:42:58.083Z,4.50
2023-09-13T01:45:50.558Z,4.33
2023-09-13T01:48:39.645Z,4.80
2023-09-13T01:51:28.240Z,4.70
2023-09-13T01:54:16.051Z,4.40
2023-09-13T01:57:04.116Z,4.93
2023-09-13T01:59:52.168Z,4.77
2023-09-13T02:02:42.215Z,4.90
2023-09-13T02:05:30.095Z,4.90
2023-09-13T02:08:18.115Z,4.60
2023-09-13T02:11:07.937Z,4.83
2023-09-13T02:13:55.741Z,5.13
2023-09-13T02:16:44.760Z,4.93
2023-09-13T02:19:33.942Z,5.00
2023-09-13T02:22:21.784Z,5.03
2023-09-13T02:25:09.957Z,4.93
2023-09-13T02:27:57.853Z,5.07
2023-09-13T02:30:48.373Z,4.80
2023-09-13T02:33:36.520Z,5.33
2023-09-13T02:36:26.710Z,5.00
2023-09-13T02:39:29.533Z,5.60
2023-09-13T02:42:17.688Z,4.57
2023-09-13T02:45:05.929Z,5.10
2023-09-13T02:47:54.532Z,5.00
2023-09-13T02:50:43.271Z,5.73
2023-09-13T02:53:32.861Z,5.17
2023-09-13T02:56:21.244Z,4.90
2023-09-13T02:59:09.043Z,5.47
2023-09-13T03:01:57.120Z,4.80
2023-09-13T03:04:45.289Z,4.73
2023-09-13T03:07:33.206Z,4.73
2023-09-13T03:10:22.394Z,4.53
2023-09-13T03:13:10.344Z,5.33
2023-09-13T03:15:58.983Z,4.90
2023-09-13T03:18:47.455Z,4.87
2023-09-13T03:21:37.292Z,4.90
2023-09-13T03:24:25.457Z,4.90
2023-09-13T03:27:14.607Z,5.43
2023-09-13T03:30:03.108Z,5.60
2023-09-13T03:32:52.331Z,4.90
2023-09-13T03:35:40.548Z,5.60
2023-09-13T03:38:28.416Z,5.93
2023-09-13T03:41:17.679Z,5.37
2023-09-13T03:44:07.084Z,5.33
2023-09-13T03:46:57.727Z,5.53
2023-09-13T03:49:46.878Z,5.40
2023-09-13T03:52:34.662Z,4.77
2023-09-13T03:55:22.616Z,5.40
2023-09-13T03:58:10.647Z,5.60
2023-09-13T04:01:00.691Z,5.30
2023-09-13T04:03:49.442Z,5.30
2023-09-13T04:06:38.181Z,5.23
2023-09-13T04:09:27.488Z,5.10
2023-09-13T04:12:15.293Z,5.20
2023-09-13T04:15:04.717Z,5.13
2023-09-13T04:17:53.933Z,6.07
2023-09-13T04:20:43.853Z,5.40
2023-09-13T04:23:31.716Z,5.03
2023-09-13T04:26:22.778Z,5.93
2023-09-13T04:29:10.720Z,5.30
2023-09-13T04:31:58.938Z,4.90
2023-09-13T04:34:48.144Z,5.80
2023-09-13T04:37:38.155Z,5.60
2023-09-13T04:40:26.519Z,5.70
2023-09-13T04:43:24.869Z,5.87
2023-09-13T04:46:13.832Z,6.43
2023-09-13T04:49:01.846Z,6.37
2023-09-13T04:51:52.169Z,6.53
2023-09-13T04:54:40.035Z,6.33
2023-09-13T04:57:28.378Z,6.80
2023-09-13T05:00:17.648Z,6.73
2023-09-13T05:03:05.686Z,6.30
2023-09-13T05:05:53.607Z,6.17
2023-09-13T05:08:42.750Z,6.33
2023-09-13T05:11:31.047Z,5.93
2023-09-13T05:14:18.856Z,6.70
2023-09-13T05:17:06.780Z,7.40
2023-09-13T05:19:55.247Z,7.37
2023-09-13T05:22:43.841Z,7.13
2023-09-13T05:25:33.072Z,7.00
2023-09-13T05:28:20.995Z,5.73
2023-09-13T05:31:09.087Z,6.40
2023-09-13T05:33:57.119Z,5.87
2023-09-13T05:36:45.525Z,6.23
2023-09-13T05:39:33.312Z,6.90
2023-09-13T05:42:22.458Z,6.77
2023-09-13T05:45:11.085Z,6.30
2023-09-13T05:48:00.848Z,7.60
2023-09-13T05:50:48.818Z,7.40
2023-09-13T05:53:36.629Z,7.20
2023-09-13T05:56:26.571Z,7.90
2023-09-13T05:59:16.920Z,7.53
2023-09-13T06:02:04.895Z,6.23
2023-09-13T06:04:58.522Z,6.80
2023-09-13T06:07:46.348Z,7.33
2023-09-13T06:10:34.186Z,9.30
2023-09-13T06:13:23.973Z,8.73
2023-09-13T06:16:13.173Z,8.27
2023-09-13T06:19:01.847Z,8.50
2023-09-13T06:21:50.999Z,9.13
2023-09-13T06:24:38.821Z,9.57
2023-09-13T06:27:26.622Z,8.60
2023-09-13T06:30:14.995Z,9.07
2023-09-13T06:33:12.175Z,9.03
2023-09-13T06:36:01.567Z,8.00
2023-09-13T06:38:50.078Z,7.77
2023-09-13T06:44:42.896Z,9.00
2023-09-13T06:47:37.146Z,9.53
2023-09-13T06:50:50.889Z,9.73
2023-09-13T06:53:35.748Z,9.50
2023-09-13T06:56:30.428Z,9.63
2023-09-13T06:59:21.979Z,8.37
2023-09-13T07:02:30.439Z,8.93
2023-09-13T07:08:10.489Z,9.10
2023-09-13T07:10:58.399Z,8.70
2023-09-13T07:13:47.021Z,8.50
2023-09-13T07:16:35.054Z,8.60
2023-09-13T07:19:22.919Z,8.03
2023-09-13T07:22:10.878Z,7.60
2023-09-13T07:24:39.932Z,7.90
2023-09-13T07:27:07.518Z,7.27
2023-09-13T07:29:35.481Z,7.57
2023-09-13T07:32:04.138Z,8.30
2023-09-13T07:34:32.954Z,8.40
2023-09-13T07:37:00.568Z,7.87
2023-09-13T07:39:28.429Z,7.60
2023-09-13T07:41:57.451Z,7.23
2023-09-13T07:44:24.927Z,7.07
2023-09-13T07:46:52.499Z,7.77
2023-09-13T07:49:20.044Z,7.30
2023-09-13T07:51:47.563Z,7.00
2023-09-13T07:54:17.256Z,6.83
2023-09-13T07:56:46.934Z,7.17
2023-09-13T07:59:18.386Z,6.93
2023-09-13T08:01:46.261Z,6.23
2023-09-13T08:04:13.884Z,6.07
2023-09-13T08:06:42.549Z,6.20
2023-09-13T08:09:10.378Z,6.23
2023-09-13T08:11:38.216Z,6.33
2023-09-13T08:14:05.768Z,5.50
2023-09-13T08:16:34.848Z,6.10
2023-09-13T08:19:02.353Z,5.90
2023-09-13T08:21:30.036Z,5.50
2023-09-13T08:23:57.494Z,6.07
2023-09-13T08:26:28.291Z,5.20
2023-09-13T08:28:56.059Z,5.03
2023-09-13T08:31:25.138Z,6.10
2023-09-13T08:33:55.005Z,5.23
2023-09-13T08:36:22.491Z,4.97
2023-09-13T08:38:49.957Z,5.07
2023-09-13T08:41:18.085Z,4.57
2023-09-13T08:43:46.080Z,4.30
2023-09-13T08:46:14.224Z,3.67
2023-09-13T08:48:43.810Z,3.70
2023-09-13T08:51:13.616Z,3.20
2023-09-13T08:53:42.783Z,4.10
2023-09-13T08:56:10.524Z,3.83
2023-09-13T08:58:38.181Z,3.63
2023-09-13T09:01:10.218Z,3.80
2023-09-13T09:03:38.685Z,4.27
2023-09-13T09:06:07.363Z,4.50
2023-09-13T09:08:38.832Z,4.30
2023-09-13T09:11:06.771Z,4.07
2023-09-13T09:13:34.826Z,3.90
2023-09-13T09:16:03.228Z,4.17
2023-09-13T09:18:32.356Z,4.30
2023-09-13T09:21:01.393Z,4.10
2023-09-13T09:23:30.366Z,4.40
2023-09-13T09:26:00.642Z,4.00
2023-09-13T09:28:29.489Z,4.10
2023-09-13T09:30:57.101Z,3.97
2023-09-13T09:33:29.624Z,4.10
2023-09-13T09:35:58.188Z,3.97
2023-09-13T09:38:27.419Z,3.23
2023-09-13T09:40:57.332Z,3.00
2023-09-13T09:43:26.215Z,3.40
2023-09-13T09:45:54.157Z,3.50
2023-09-13T09:48:22.193Z,3.00
2023-09-13T09:50:50.381Z,2.90
2023-09-13T09:53:18.975Z,3.00
2023-09-13T09:55:46.802Z,3.03
2023-09-13T09:58:15.059Z,3.10
2023-09-13T10:00:48.538Z,3.13
2023-09-13T10:03:19.329Z,3.03
2023-09-13T10:05:53.939Z,2.53
2023-09-13T10:08:21.577Z,3.10
2023-09-13T10:10:52.385Z,3.13
2023-09-13T10:13:19.895Z,3.23
2023-09-13T10:15:48.688Z,3.37
2023-09-13T10:18:18.479Z,3.20
2023-09-13T10:20:46.982Z,3.43
2023-09-13T10:23:15.653Z,3.10
2023-09-13T10:25:44.446Z,3.23
2023-09-13T10:28:13.497Z,3.43
2023-09-13T10:30:43.506Z,2.90
2023-09-13T10:33:15.401Z,3.40
2023-09-13T10:35:46.579Z,3.50
2023-09-13T10:38:15.595Z,3.13
2023-09-13T10:40:45.644Z,3.97
2023-09-13T10:43:14.600Z,4.00
2023-09-13T10:45:42.780Z,3.43
2023-09-13T10:48:10.638Z,4.00
2023-09-13T10:50:40.321Z,4.23
2023-09-13T10:53:08.633Z,3.87
2023-09-13T10:55:36.987Z,3.70
2023-09-13T10:58:05.200Z,3.60
2023-09-13T11:00:34.041Z,4.10
2023-09-13T11:03:02.765Z,4.07
2023-09-13T11:05:31.194Z,3.90
2023-09-13T11:08:00.465Z,3.77
2023-09-13T11:10:32.082Z,4.07
2023-09-13T11:13:13.448Z,4.07
2023-09-13T11:15:49.315Z,3.57
2023-09-13T11:18:17.737Z,3.70
2023-09-13T11:20:45.421Z,3.90
2023-09-13T11:23:30.808Z,3.33
2023-09-13T11:26:05.969Z,3.30
2023-09-13T11:28:45.771Z,3.27
2023-09-13T11:31:15.943Z,3.60
2023-09-13T11:33:47.815Z,3.53
2023-09-13T11:36:17.336Z,3.17
2023-09-13T11:38:46.707Z,3.33
2023-09-13T11:41:17.931Z,3.10
2023-09-13T11:44:00.676Z,3.17
2023-09-13T11:46:30.796Z,3.40
2023-09-13T11:49:01.937Z,3.30
2023-09-13T11:51:51.809Z,2.30
2023-09-13T11:54:24.192Z,2.40
2023-09-13T11:57:10.054Z,2.20
2023-09-13T11:59:44.772Z,2.00
2023-09-13T12:02:16.188Z,1.93
2023-09-13T12:04:54.057Z,1.87
2023-09-13T12:07:32.134Z,2.00
2023-09-13T12:10:04.023Z,1.93
2023-09-13T12:12:46.910Z,2.20
2023-09-13T12:18:04.988Z,2.10
2023-09-13T12:20:32.880Z,2.30
2023-09-13T12:23:00.348Z,2.40
2023-09-13T12:25:29.192Z,2.30
2023-09-13T12:27:58.176Z,2.17
2023-09-13T12:30:27.775Z,2.20
2023-09-13T12:32:55.710Z,1.90
2023-09-13T12:35:24.268Z,2.27
2023-09-13T12:38:00.486Z,2.00
2023-09-13T12:40:29.728Z,2.10
2023-09-13T12:42:57.479Z,2.47
2023-09-13T12:45:25.733Z,2.03
2023-09-13T12:47:53.360Z,2.27
2023-09-13T12:50:33.133Z,1.73
2023-09-13T12:53:02.053Z,1.97
2023-09-13T12:55:31.814Z,2.03
2023-09-13T12:58:02.682Z,2.03
2023-09-13T13:00:30.404Z,1.70
2023-09-13T13:02:58.967Z,2.00
2023-09-13T13:05:26.827Z,1.70
2023-09-13T13:10:24.829Z,1.70
2023-09-13T13:12:56.815Z,1.80
2023-09-13T13:15:30.715Z,1.70
2023-09-13T13:17:58.240Z,1.50
2023-09-13T13:20:27.931Z,1.73
2023-09-13T13:22:55.841Z,1.50
2023-09-13T13:25:23.820Z,1.23
2023-09-13T13:27:51.579Z,1.80
2023-09-13T13:30:20.640Z,1.13
2023-09-13T13:32:48.233Z,1.27
2023-09-13T13:35:16.950Z,1.20
2023-09-13T13:37:47.706Z,1.40
2023-09-13T13:40:15.409Z,1.40
2023-09-13T13:42:42.969Z,1.50
2023-09-13T13:45:12.177Z,1.30
2023-09-13T13:47:41.322Z,1.70
2023-09-13T13:50:09.823Z,1.80
2023-09-13T13:52:37.294Z,2.07
2023-09-13T13:55:05.758Z,2.00
2023-09-13T13:57:38.038Z,2.30
2023-09-13T14:00:06.453Z,2.10
2023-09-13T14:02:40.988Z,2.00
2023-09-13T14:05:08.731Z,2.30
2023-09-13T14:07:36.380Z,2.33
2023-09-13T14:10:03.903Z,2.10
2023-09-13T14:12:31.413Z,2.00
2023-09-13T14:14:58.931Z,2.17
2023-09-13T14:17:27.016Z,2.10
2023-09-13T14:19:55.982Z,2.30
2023-09-13T14:22:23.529Z,2.10
2023-09-13T14:24:51.377Z,2.60
2023-09-13T14:27:18.945Z,2.17
2023-09-13T14:29:46.450Z,2.40
2023-09-13T14:32:13.921Z,2.77
2023-09-13T14:34:43.348Z,1.97
2023-09-13T14:37:12.187Z,2.00
2023-09-13T14:39:40.154Z,1.90
2023-09-13T14:42:07.776Z,2.30
2023-09-13T14:44:35.410Z,2.43
2023-09-13T14:47:03.122Z,2.30
2023-09-13T14:49:30.985Z,2.37
2023-09-13T14:51:58.453Z,2.20
2023-09-13T14:54:27.280Z,2.40
2023-09-13T14:56:54.925Z,2.50
2023-09-13T14:59:23.840Z,2.50
2023-09-13T15:01:52.165Z,3.20
2023-09-13T15:04:20.063Z,3.40
2023-09-13T15:06:48.221Z,2.87
2023-09-13T15:09:15.730Z,2.70
2023-09-13T15:11:44.573Z,2.80
2023-09-13T15:14:12.937Z,2.83
2023-09-13T15:16:41.552Z,2.70
2023-09-13T15:19:09.702Z,2.70
2023-09-13T15:21:38.324Z,2.67
2023-09-13T15:24:05.908Z,3.00
2023-09-13T15:26:33.750Z,2.90
2023-09-13T15:29:02.563Z,2.50
2023-09-13T15:31:49.919Z,3.00
2023-09-13T15:34:18.753Z,2.93
2023-09-13T15:36:46.406Z,2.73
2023-09-13T15:39:14.552Z,2.37
2023-09-13T15:41:42.049Z,2.63
2023-09-13T15:44:11.971Z,2.90
2023-09-13T15:46:43.110Z,2.13
2023-09-13T15:49:11.032Z,1.83
2023-09-13T15:51:39.500Z,1.80
2023-09-13T15:54:07.192Z,1.60
2023-09-13T15:56:34.902Z,1.80
2023-09-13T15:59:03.281Z,1.77
2023-09-13T16:01:33.750Z,2.10
2023-09-13T16:04:01.668Z,2.00
2023-09-13T16:06:29.325Z,2.00
2023-09-13T16:08:57.048Z,2.20
2023-09-13T16:11:25.480Z,2.10
2023-09-13T16:13:53.004Z,2.10
2023-09-13T16:16:20.513Z,1.80
2023-09-13T16:18:49.664Z,2.20
2023-09-13T16:21:17.261Z,2.50
2023-09-13T16:23:45.252Z,1.90
2023-09-13T16:26:12.958Z,2.10
2023-09-13T16:28:40.540Z,1.90
2023-09-13T16:31:08.906Z,2.20
2023-09-13T16:33:36.793Z,1.77
2023-09-13T16:36:05.785Z,1.97
2023-09-13T16:38:34.324Z,1.90
2023-09-13T16:41:01.746Z,1.80
2023-09-13T16:43:29.531Z,1.60
2023-09-13T16:45:58.217Z,2.20
2023-09-13T16:48:34.410Z,2.17
2023-09-13T16:51:03.939Z,2.10
2023-09-13T16:53:35.619Z,2.03
2023-09-13T16:56:03.204Z,2.30
2023-09-13T16:58:30.697Z,2.13
2023-09-13T17:00:58.700Z,1.90
2023-09-13T17:03:26.482Z,1.90
2023-09-13T17:05:54.598Z,1.80
2023-09-13T17:08:22.278Z,1.93
2023-09-13T17:10:51.078Z,2.10
2023-09-13T17:13:21.985Z,2.20
2023-09-13T17:15:49.615Z,2.47
2023-09-13T17:18:17.621Z,2.50
2023-09-13T17:20:45.856Z,2.30
2023-09-13T17:23:13.368Z,2.10
2023-09-13T17:25:40.889Z,2.00
2023-09-13T17:28:10.751Z,2.43
2023-09-13T17:30:38.398Z,2.50
2023-09-13T17:33:07.979Z,2.77
2023-09-13T17:35:35.787Z,2.37
2023-09-13T17:38:04.439Z,2.27
2023-09-13T17:40:32.463Z,2.50
2023-09-13T17:43:00.861Z,2.50
2023-09-13T17:45:30.443Z,2.40
2023-09-13T17:47:59.035Z,2.50
2023-09-13T17:50:26.619Z,2.20
2023-09-13T17:52:54.162Z,2.73
2023-09-13T17:55:22.468Z,2.57
2023-09-13T17:57:51.335Z,2.60
2023-09-13T18:00:18.907Z,2.70
2023-09-13T18:02:47.868Z,2.63
2023-09-13T18:05:15.438Z,2.60
2023-09-13T18:07:43.308Z,2.40
2023-09-13T18:10:12.357Z,2.40
2023-09-13T18:12:40.505Z,2.60
2023-09-13T18:15:09.364Z,2.30
2023-09-13T18:17:54.532Z,2.30
2023-09-13T18:20:25.331Z,2.80
2023-09-13T18:22:52.780Z,3.00
2023-09-13T18:25:20.288Z,3.07
2023-09-13T18:27:47.813Z,2.90
2023-09-13T18:30:15.878Z,3.00
2023-09-13T18:32:43.378Z,3.20
2023-09-13T18:35:11.229Z,3.27
2023-09-13T18:37:40.065Z,3.40
2023-09-13T18:40:08.064Z,3.47
2023-09-13T18:42:36.099Z,3.13
2023-09-13T18:45:05.683Z,3.00
2023-09-13T18:47:33.437Z,3.50
2023-09-13T18:50:00.912Z,3.17
2023-09-13T18:52:29.000Z,3.00
2023-09-13T18:54:57.842Z,3.33
2023-09-13T18:57:31.091Z,2.80
2023-09-13T18:59:58.632Z,2.73
2023-09-13T19:02:26.144Z,3.20
2023-09-13T19:04:54.098Z,3.73
2023-09-13T19:07:21.611Z,2.90
2023-09-13T19:09:49.131Z,2.97
2023-09-13T19:12:17.969Z,3.07
2023-09-13T19:14:46.297Z,3.50
2023-09-13T19:17:13.802Z,3.20
2023-09-13T19:19:41.944Z,3.10
2023-09-13T19:22:09.377Z,2.80
2023-09-13T19:24:50.209Z,3.03
2023-09-13T19:27:25.451Z,3.67
2023-09-13T19:29:54.058Z,2.80
2023-09-13T19:32:22.036Z,3.47
2023-09-13T19:34:50.400Z,3.63
2023-09-13T19:37:18.384Z,3.40
2023-09-13T19:39:45.865Z,3.23
2023-09-13T19:42:13.370Z,3.33
2023-09-13T19:44:42.292Z,3.60
2023-09-13T19:47:09.825Z,3.90
2023-09-13T19:49:37.366Z,3.50
2023-09-13T19:52:05.729Z,3.70
2023-09-13T19:54:34.297Z,4.10
2023-09-13T19:57:02.095Z,3.87
2023-09-13T19:59:30.434Z,3.70
2023-09-13T20:02:00.397Z,3.93
2023-09-13T20:04:27.865Z,4.10
2023-09-13T20:06:55.787Z,4.20
2023-09-13T20:09:23.299Z,3.77
2023-09-13T20:12:00.824Z,4.57
2023-09-13T20:14:28.298Z,4.33
2023-09-13T20:16:55.936Z,4.10
2023-09-13T20:19:24.762Z,4.50
2023-09-13T20:21:52.254Z,4.23
2023-09-13T20:24:20.519Z,4.80
2023-09-13T20:26:48.013Z,4.80
2023-09-13T20:29:15.702Z,5.20
2023-09-13T20:31:43.486Z,4.90
2023-09-13T20:34:12.149Z,4.60
2023-09-13T20:36:41.024Z,4.47
2023-09-13T20:39:09.733Z,5.00
2023-09-13T20:41:39.857Z,4.90
2023-09-13T20:44:08.380Z,5.03
2023-09-13T20:46:36.006Z,4.33
2023-09-13T20:49:04.240Z,4.70
2023-09-13T20:51:31.937Z,4.77
2023-09-13T20:54:02.928Z,5.43
2023-09-13T20:56:30.386Z,4.83
2023-09-13T20:58:57.876Z,4.90
2023-09-13T21:01:26.334Z,5.07
2023-09-13T21:03:55.208Z,4.93
2023-09-13T21:06:22.776Z,5.07
2023-09-13T21:08:50.839Z,5.37
2023-09-13T21:11:19.648Z,5.17
2023-09-13T21:13:47.108Z,4.80
2023-09-13T21:16:14.726Z,5.73
2023-09-13T21:18:42.263Z,5.43
2023-09-13T21:21:09.806Z,4.70
2023-09-13T21:23:37.291Z,5.13
2023-09-13T21:26:04.789Z,4.50
2023-09-13T21:28:34.488Z,4.80
2023-09-13T21:31:02.361Z,4.67
2023-09-13T21:33:29.892Z,5.23
2023-09-13T21:36:00.991Z,4.87
2023-09-13T21:38:30.596Z,4.47
2023-09-13T21:40:58.361Z,4.70
2023-09-13T21:43:25.943Z,4.67
2023-09-13T21:45:59.943Z,4.70
2023-09-13T21:48:27.572Z,4.60
2023-09-13T21:50:55.444Z,4.60
2023-09-13T21:53:23.138Z,5.00
2023-09-13T21:55:51.636Z,4.27
2023-09-13T21:58:20.721Z,4.53
2023-09-13T22:00:48.588Z,4.60
2023-09-13T22:03:18.177Z,4.20
2023-09-13T22:05:45.892Z,4.17
2023-09-13T22:08:13.485Z,4.13
2023-09-13T22:10:41.822Z,4.70
2023-09-13T22:13:09.401Z,4.37
2023-09-13T22:15:37.025Z,4.70
2023-09-13T22:18:04.868Z,4.53
2023-09-13T22:20:33.783Z,4.77
2023-09-13T22:23:01.373Z,4.57
2023-09-13T22:25:28.960Z,4.27
2023-09-13T22:27:56.518Z,5.03
2023-09-13T22:30:24.292Z,5.10
2023-09-13T22:32:52.937Z,5.33
2023-09-13T22:35:20.965Z,4.67
2023-09-13T22:37:50.528Z,5.60
2023-09-13T22:40:18.195Z,4.83
2023-09-13T22:42:47.212Z,5.23
2023-09-13T22:45:15.622Z,5.07
2023-09-13T22:47:44.060Z,5.47
2023-09-13T22:50:11.728Z,5.07
2023-09-13T22:52:39.475Z,5.90
2023-09-13T22:55:08.776Z,5.17
2023-09-13T22:57:38.094Z,5.87
2023-09-13T23:00:06.424Z,5.93
2023-09-13T23:02:35.522Z,5.30
2023-09-13T23:05:03.618Z,4.70
2023-09-13T23:07:31.153Z,4.93
2023-09-13T23:09:58.633Z,4.70
2023-09-13T23:12:27.517Z,4.33
2023-09-13T23:14:55.014Z,4.63
2023-09-13T23:17:22.504Z,5.43
2023-09-13T23:19:50.026Z,5.17
2023-09-13T23:22:17.888Z,4.70
2023-09-13T23:24:45.390Z,4.57
2023-09-13T23:27:13.002Z,3.07
2023-09-13T23:29:43.001Z,1.90
2023-09-13T23:32:10.454Z,1.93
2023-09-13T23:34:38.147Z,1.80
2023-09-13T23:37:05.636Z,2.53
2023-09-13T23:39:33.143Z,2.57
2023-09-13T23:42:00.597Z,2.63
2023-09-13T23:44:28.957Z,2.57
2023-09-13T23:46:58.904Z,2.40
2023-09-13T23:49:26.375Z,2.60
2023-09-13T23:51:55.025Z,2.40
2023-09-13T23:54:22.588Z,2.23
2023-09-13T23:56:50.236Z,2.70
2023-09-13T23:59:18.776Z,3.00
